createdAt,value
2022-10-25T00:00:07.238Z,101799.94
2022-10-25T00:02:38.949Z,101786.47
2022-10-25T00:05:06.854Z,101782.34
2022-10-25T00:07:34.002Z,101787.34
2022-10-25T00:10:01.084Z,101797.41
2022-10-25T00:12:28.128Z,101800.47
2022-10-25T00:14:55.292Z,101799.53
2022-10-25T00:17:22.299Z,101796.13
2022-10-25T00:19:49.361Z,101792.94
2022-10-25T00:22:16.511Z,101791.28
2022-10-25T00:24:43.586Z,101782.69
2022-10-25T00:27:10.780Z,101779.94
2022-10-25T00:29:37.827Z,101771.13
2022-10-25T00:32:05.044Z,101773.50
2022-10-25T00:34:32.161Z,101779.13
2022-10-25T00:36:59.218Z,101780.88
2022-10-25T00:39:26.800Z,101780.06
2022-10-25T00:41:53.829Z,101773.13
2022-10-25T00:44:50.117Z,101769.28
2022-10-25T00:47:19.766Z,101762.81
2022-10-25T00:49:56.411Z,101765.59
2022-10-25T00:52:24.073Z,101766.53
2022-10-25T00:54:53.625Z,101767.31
2022-10-25T00:57:34.716Z,101766.38
2022-10-25T01:00:03.007Z,101770.78
2022-10-25T01:02:30.304Z,101766.94
2022-10-25T01:04:57.635Z,101764.41
2022-10-25T01:07:24.821Z,101754.69
2022-10-25T01:09:52.755Z,101750.44
2022-10-25T01:12:19.986Z,101746.06
2022-10-25T01:14:49.816Z,101741.84
2022-10-25T01:17:28.286Z,101744.75
2022-10-25T01:20:10.508Z,101746.88
2022-10-25T01:22:37.513Z,101753.72
2022-10-25T01:25:19.830Z,101752.59
2022-10-25T01:28:11.686Z,101746.00
2022-10-25T01:30:56.867Z,101743.69
2022-10-25T01:33:40.457Z,101750.69
2022-10-25T01:36:28.834Z,101746.16
2022-10-25T01:39:28.205Z,101740.84
2022-10-25T01:42:05.515Z,101746.53
2022-10-25T01:44:48.905Z,101743.63
2022-10-25T01:47:21.424Z,101743.63
2022-10-25T01:49:57.545Z,101744.78
2022-10-25T01:52:26.025Z,101745.44
2022-10-25T01:54:53.176Z,101736.34
2022-10-25T01:57:35.286Z,101726.13
2022-10-25T02:00:20.225Z,101731.78
2022-10-25T02:03:06.006Z,101734.41
2022-10-25T02:05:45.794Z,101731.50
2022-10-25T02:08:19.252Z,101733.28
2022-10-25T02:11:12.306Z,101729.25
2022-10-25T02:13:57.789Z,101727.16
2022-10-25T02:16:32.178Z,101729.91
2022-10-25T02:19:04.342Z,101732.53
2022-10-25T02:21:37.266Z,101730.88
2022-10-25T02:24:12.780Z,101728.47
2022-10-25T02:26:42.520Z,101722.47
2022-10-25T02:29:12.075Z,101713.75
2022-10-25T02:31:39.376Z,101713.41
2022-10-25T02:34:06.569Z,101716.50
2022-10-25T02:36:33.731Z,101714.06
2022-10-25T02:39:01.598Z,101718.09
2022-10-25T02:41:28.895Z,101708.84
2022-10-25T02:43:56.105Z,101714.84
2022-10-25T02:46:24.209Z,101713.09
2022-10-25T02:48:52.016Z,101712.44
2022-10-25T02:51:19.296Z,101713.91
2022-10-25T02:53:46.782Z,101712.75
2022-10-25T02:56:20.392Z,101724.28
2022-10-25T02:58:49.635Z,101722.97
2022-10-25T03:01:19.395Z,101722.38
2022-10-25T03:03:46.714Z,101725.78
2022-10-25T03:06:14.704Z,101717.34
2022-10-25T03:08:43.312Z,101713.59
2022-10-25T03:11:12.090Z,101719.13
2022-10-25T03:13:39.223Z,101720.91
2022-10-25T03:16:06.762Z,101729.84
2022-10-25T03:18:33.930Z,101719.94
2022-10-25T03:21:02.697Z,101729.50
2022-10-25T03:23:30.155Z,101716.06
2022-10-25T03:26:00.083Z,101711.66
2022-10-25T03:28:28.300Z,101711.00
2022-10-25T03:30:56.657Z,101711.84
2022-10-25T03:33:25.106Z,101713.31
2022-10-25T03:35:53.715Z,101715.09
2022-10-25T03:38:21.316Z,101710.56
2022-10-25T03:40:48.442Z,101708.94
2022-10-25T03:43:15.697Z,101711.56
2022-10-25T03:45:42.862Z,101709.91
2022-10-25T03:48:10.085Z,101706.97
2022-10-25T03:50:37.302Z,101719.94
2022-10-25T03:53:05.957Z,101713.47
2022-10-25T03:55:34.417Z,101712.16
2022-10-25T03:58:01.826Z,101706.34
2022-10-25T04:00:29.131Z,101710.06
2022-10-25T04:03:02.226Z,101709.75
2022-10-25T04:05:30.967Z,101711.38
2022-10-25T04:07:58.916Z,101712.16
2022-10-25T04:10:26.905Z,101710.56
2022-10-25T04:12:55.054Z,101713.00
2022-10-25T04:15:24.077Z,101707.00
2022-10-25T04:17:52.621Z,101717.66
2022-10-25T04:20:20.249Z,101710.84
2022-10-25T04:22:54.199Z,101721.84
2022-10-25T04:25:21.795Z,101709.53
2022-10-25T04:27:49.167Z,101706.63
2022-10-25T04:30:16.707Z,101709.69
2022-10-25T04:32:43.981Z,101708.09
2022-10-25T04:35:11.192Z,101696.94
2022-10-25T04:37:38.637Z,101702.75
2022-10-25T04:40:06.549Z,101702.09
2022-10-25T04:42:34.881Z,101704.53
2022-10-25T04:45:02.239Z,101694.63
2022-10-25T04:47:33.204Z,101700.34
2022-10-25T04:50:00.473Z,101700.19
2022-10-25T04:52:29.944Z,101701.97
2022-10-25T04:54:57.368Z,101700.34
2022-10-25T04:57:25.784Z,101699.22
2022-10-25T04:59:53.452Z,101694.53
2022-10-25T05:02:20.820Z,101692.88
2022-10-25T05:04:47.899Z,101698.31
2022-10-25T05:07:18.655Z,101690.84
2022-10-25T05:09:47.403Z,101689.69
2022-10-25T05:12:15.236Z,101692.16
2022-10-25T05:14:42.618Z,101697.22
2022-10-25T05:17:09.827Z,101693.84
2022-10-25T05:19:37.028Z,101691.06
2022-10-25T05:22:04.066Z,101684.31
2022-10-25T05:24:31.286Z,101699.69
2022-10-25T05:26:58.426Z,101701.94
2022-10-25T05:29:25.602Z,101701.72
2022-10-25T05:31:52.785Z,101696.28
2022-10-25T05:34:19.838Z,101699.25
2022-10-25T05:36:47.094Z,101695.22
2022-10-25T05:39:14.085Z,101695.31
2022-10-25T05:41:41.285Z,101696.78
2022-10-25T05:44:08.511Z,101697.28
2022-10-25T05:46:35.960Z,101693.41
2022-10-25T05:49:03.873Z,101707.88
2022-10-25T05:51:35.857Z,101699.00
2022-10-25T05:54:23.601Z,101710.13
2022-10-25T05:56:50.972Z,101726.78
2022-10-25T05:59:18.054Z,101725.81
2022-10-25T06:01:46.979Z,101730.88
2022-10-25T06:04:15.692Z,101732.22
2022-10-25T06:06:45.167Z,101720.66
2022-10-25T06:09:13.146Z,101723.16
2022-10-25T06:11:40.768Z,101722.91
2022-10-25T06:14:10.046Z,101729.53
2022-10-25T06:16:38.035Z,101735.56
2022-10-25T06:19:05.277Z,101743.78
2022-10-25T06:21:32.397Z,101744.00
2022-10-25T06:24:00.275Z,101742.69
2022-10-25T06:26:29.823Z,101751.84
2022-10-25T06:29:02.219Z,101757.38
2022-10-25T06:31:30.686Z,101757.00
2022-10-25T06:34:00.178Z,101757.72
2022-10-25T06:36:28.081Z,101761.59
2022-10-25T06:38:55.322Z,101767.84
2022-10-25T06:41:28.200Z,101771.09
2022-10-25T06:43:55.944Z,101781.69
2022-10-25T06:46:24.273Z,101774.44
2022-10-25T06:48:53.705Z,101766.50
2022-10-25T06:51:22.237Z,101773.72
2022-10-25T06:53:57.507Z,101766.78
2022-10-25T06:56:25.816Z,101770.56
2022-10-25T06:58:52.955Z,101779.03
2022-10-25T07:01:22.371Z,101775.22
2022-10-25T07:03:50.997Z,101769.13
2022-10-25T07:06:23.200Z,101770.69
2022-10-25T07:08:57.209Z,101775.19
2022-10-25T07:11:26.207Z,101776.31
2022-10-25T07:13:53.334Z,101771.47
2022-10-25T07:16:21.856Z,101779.97
2022-10-25T07:18:49.390Z,101779.94
2022-10-25T07:21:19.192Z,101779.31
2022-10-25T07:23:47.115Z,101775.53
2022-10-25T07:26:17.490Z,101785.06
2022-10-25T07:28:47.073Z,101783.63
2022-10-25T07:31:16.249Z,101777.09
2022-10-25T07:33:43.771Z,101785.69
2022-10-25T07:36:11.959Z,101780.41
2022-10-25T07:38:39.981Z,101782.72
2022-10-25T07:41:07.879Z,101784.59
2022-10-25T07:43:35.424Z,101787.59
2022-10-25T07:46:03.241Z,101788.19
2022-10-25T07:48:30.336Z,101790.03
2022-10-25T07:50:57.524Z,101779.84
2022-10-25T07:53:24.747Z,101789.94
2022-10-25T07:55:56.165Z,101787.97
2022-10-25T07:58:23.334Z,101789.56
2022-10-25T08:00:50.454Z,101795.06
2022-10-25T08:03:18.809Z,101790.97
2022-10-25T08:05:49.006Z,101792.94
2022-10-25T08:08:16.293Z,101791.34
2022-10-25T08:10:44.754Z,101798.88
2022-10-25T08:13:12.342Z,101794.13
2022-10-25T08:15:41.124Z,101792.81
2022-10-25T08:18:09.815Z,101794.03
2022-10-25T08:21:00.515Z,101788.56
2022-10-25T08:23:25.536Z,101792.94
2022-10-25T08:25:53.015Z,101791.00
2022-10-25T08:28:21.121Z,101793.56
2022-10-25T08:30:49.535Z,101787.78
2022-10-25T08:33:16.608Z,101788.75
2022-10-25T08:35:43.719Z,101785.97
2022-10-25T08:38:10.919Z,101786.47
2022-10-25T08:41:03.303Z,101787.22
2022-10-25T08:43:48.987Z,101792.19
2022-10-25T08:46:29.506Z,101780.38
2022-10-25T08:49:14.959Z,101779.56
2022-10-25T08:51:47.644Z,101778.97
2022-10-25T08:54:29.064Z,101783.84
2022-10-25T08:57:45.079Z,101789.25
2022-10-25T09:00:23.787Z,101783.41
2022-10-25T09:02:56.937Z,101774.44
2022-10-25T09:05:40.773Z,101784.78
2022-10-25T09:08:28.125Z,101780.84
2022-10-25T09:11:22.047Z,101779.31
2022-10-25T09:14:26.542Z,101772.97
2022-10-25T09:17:07.499Z,101767.94
2022-10-25T09:19:49.503Z,101772.47
2022-10-25T09:22:29.207Z,101774.78
2022-10-25T09:25:31.615Z,101774.44
2022-10-25T09:28:01.269Z,101763.44
2022-10-25T09:30:31.795Z,101766.69
2022-10-25T09:33:03.313Z,101770.75
2022-10-25T09:35:53.780Z,101758.97
2022-10-25T09:38:40.589Z,101766.97
2022-10-25T09:41:13.895Z,101756.41
2022-10-25T09:43:44.016Z,101764.44
2022-10-25T09:46:24.193Z,101768.84
2022-10-25T09:48:57.117Z,101762.88
2022-10-25T09:51:32.947Z,101766.81
2022-10-25T09:54:09.649Z,101753.28
2022-10-25T09:56:36.827Z,101748.47
2022-10-25T09:59:04.582Z,101751.66
2022-10-25T10:01:41.155Z,101753.22
2022-10-25T10:04:31.070Z,101748.56
2022-10-25T10:07:03.901Z,101752.16
2022-10-25T10:09:32.448Z,101745.88
2022-10-25T10:12:04.274Z,101749.91
2022-10-25T10:14:40.755Z,101747.91
2022-10-25T10:17:14.310Z,101748.72
2022-10-25T10:19:41.751Z,101746.75
2022-10-25T10:22:13.708Z,101739.53
2022-10-25T10:24:48.213Z,101746.25
2022-10-25T10:27:21.407Z,101740.16
2022-10-25T10:30:08.184Z,101744.91
2022-10-25T10:32:38.075Z,101734.94
2022-10-25T10:35:08.559Z,101739.72
2022-10-25T10:37:35.842Z,101737.72
2022-10-25T10:40:24.161Z,101728.91
2022-10-25T10:42:52.183Z,101732.56
2022-10-25T10:45:20.628Z,101724.56
2022-10-25T10:47:50.784Z,101722.19
2022-10-25T10:50:27.253Z,101726.97
2022-10-25T10:52:59.828Z,101726.13
2022-10-25T10:55:38.264Z,101718.19
2022-10-25T10:58:15.230Z,101724.47
2022-10-25T11:00:52.832Z,101712.84
2022-10-25T11:04:00.755Z,101711.63
2022-10-25T11:06:35.449Z,101710.38
2022-10-25T11:09:24.245Z,101708.97
2022-10-25T11:12:15.016Z,101706.13
2022-10-25T11:14:42.824Z,101699.59
2022-10-25T11:17:30.187Z,101699.63
2022-10-25T11:20:09.102Z,101692.41
2022-10-25T11:23:18.084Z,101693.91
2022-10-25T11:25:52.595Z,101690.81
2022-10-25T11:28:48.869Z,101693.59
2022-10-25T11:31:32.445Z,101686.53
2022-10-25T11:34:09.826Z,101675.47
2022-10-25T11:36:53.446Z,101670.41
2022-10-25T11:39:56.144Z,101668.59
2022-10-25T11:42:41.702Z,101670.94
2022-10-25T11:45:19.549Z,101668.00
2022-10-25T11:47:59.297Z,101665.41
2022-10-25T11:50:34.296Z,101668.03
2022-10-25T11:53:26.371Z,101670.84
2022-10-25T11:56:00.397Z,101664.47
2022-10-25T11:58:39.389Z,101657.16
2022-10-25T12:01:31.430Z,101653.94
2022-10-25T12:04:14.359Z,101647.44
2022-10-25T12:06:57.524Z,101643.84
2022-10-25T12:09:27.338Z,101650.84
2022-10-25T12:12:09.885Z,101648.03
2022-10-25T12:14:42.688Z,101641.72
2022-10-25T12:17:21.754Z,101646.41
2022-10-25T12:19:52.747Z,101646.53
2022-10-25T12:22:31.290Z,101632.72
2022-10-25T12:25:35.793Z,101633.13
2022-10-25T12:28:35.780Z,101627.59
2022-10-25T12:31:13.239Z,101619.75
2022-10-25T12:33:46.409Z,101624.16
2022-10-25T12:36:40.526Z,101622.56
2022-10-25T12:39:18.637Z,101621.44
2022-10-25T12:41:52.557Z,101620.66
2022-10-25T12:44:56.175Z,101618.75
2022-10-25T12:47:37.821Z,101616.72
2022-10-25T12:50:14.967Z,101618.69
2022-10-25T12:53:03.266Z,101614.72
2022-10-25T12:56:02.934Z,101601.97
2022-10-25T12:58:50.293Z,101603.66
2022-10-25T13:01:36.104Z,101608.06
2022-10-25T13:04:21.543Z,101606.03
2022-10-25T13:07:10.425Z,101604.88
2022-10-25T13:09:38.821Z,101600.47
2022-10-25T13:12:30.734Z,101601.72
2022-10-25T13:15:00.140Z,101603.69
2022-10-25T13:17:27.313Z,101599.72
2022-10-25T13:20:15.253Z,101599.31
2022-10-25T13:22:43.146Z,101603.34
2022-10-25T13:25:12.900Z,101603.75
2022-10-25T13:28:12.000Z,101606.47
2022-10-25T13:30:39.059Z,101601.63
2022-10-25T13:33:22.718Z,101595.25
2022-10-25T13:35:49.977Z,101591.63
2022-10-25T13:38:30.312Z,101594.84
2022-10-25T13:41:19.786Z,101594.06
2022-10-25T13:44:18.918Z,101596.06
2022-10-25T13:46:48.196Z,101592.88
2022-10-25T13:49:40.572Z,101593.28
2022-10-25T13:52:23.234Z,101589.22
2022-10-25T13:54:54.785Z,101588.03
2022-10-25T13:57:51.267Z,101584.06
2022-10-25T14:00:26.590Z,101588.84
2022-10-25T14:03:10.126Z,101587.28
2022-10-25T14:05:57.771Z,101584.13
2022-10-25T14:08:36.865Z,101581.69
2022-10-25T14:11:36.689Z,101577.38
2022-10-25T14:14:23.631Z,101584.56
2022-10-25T14:16:53.482Z,101576.63
2022-10-25T14:19:37.644Z,101584.22
2022-10-25T14:22:32.925Z,101575.84
2022-10-25T14:25:08.562Z,101576.63
2022-10-25T14:27:38.067Z,101582.59
2022-10-25T14:30:30.711Z,101578.16
2022-10-25T14:33:04.042Z,101582.09
2022-10-25T14:35:34.685Z,101580.09
2022-10-25T14:38:15.745Z,101574.50
2022-10-25T14:40:51.109Z,101569.69
2022-10-25T14:43:35.908Z,101564.88
2022-10-25T14:46:06.135Z,101562.53
2022-10-25T14:48:34.029Z,101560.91
2022-10-25T14:51:06.752Z,101567.69
2022-10-25T14:53:34.310Z,101566.06
2022-10-25T14:56:04.781Z,101572.03
2022-10-25T14:58:42.826Z,101579.19
2022-10-25T15:01:14.748Z,101580.00
2022-10-25T15:03:44.141Z,101582.72
2022-10-25T15:06:13.586Z,101576.31
2022-10-25T15:08:42.231Z,101582.25
2022-10-25T15:11:16.094Z,101583.78
2022-10-25T15:13:48.528Z,101582.53
2022-10-25T15:16:24.693Z,101582.53
2022-10-25T15:19:18.243Z,101586.38
2022-10-25T15:21:49.202Z,101582.28
2022-10-25T15:24:26.907Z,101584.59
2022-10-25T15:26:58.911Z,101581.72
2022-10-25T15:32:23.734Z,101573.66
2022-10-25T15:34:53.612Z,101581.94
2022-10-25T15:37:23.173Z,101580.56
2022-10-25T15:39:52.733Z,101580.03
2022-10-25T15:42:21.621Z,101581.03
2022-10-25T15:44:48.674Z,101581.28
2022-10-25T15:47:33.784Z,101583.81
2022-10-25T15:50:03.743Z,101578.06
2022-10-25T15:52:31.011Z,101575.50
2022-10-25T15:54:58.072Z,101579.25
2022-10-25T15:57:27.520Z,101583.00
2022-10-25T15:59:54.658Z,101583.75
2022-10-25T16:02:32.081Z,101585.34
2022-10-25T16:04:59.271Z,101594.78
2022-10-25T16:07:26.363Z,101594.22
2022-10-25T16:09:53.547Z,101602.41
2022-10-25T16:12:28.628Z,101598.19
2022-10-25T16:14:55.903Z,101606.75
2022-10-25T16:17:23.157Z,101614.53
2022-10-25T16:19:50.437Z,101610.84
2022-10-25T16:22:17.793Z,101606.41
2022-10-25T16:24:44.981Z,101612.25
2022-10-25T16:27:13.035Z,101600.22
2022-10-25T16:29:40.412Z,101606.84
2022-10-25T16:32:07.811Z,101619.34
2022-10-25T16:34:35.085Z,101616.03
2022-10-25T16:37:02.147Z,101625.34
2022-10-25T16:39:29.489Z,101624.34
2022-10-25T16:41:58.524Z,101614.63
2022-10-25T16:44:25.859Z,101619.16
2022-10-25T16:46:53.543Z,101619.91
2022-10-25T16:49:20.720Z,101624.13
2022-10-25T16:51:48.964Z,101629.22
2022-10-25T16:54:18.684Z,101627.16
2022-10-25T16:56:47.088Z,101639.78
2022-10-25T16:59:14.727Z,101635.34
2022-10-25T17:01:44.863Z,101636.69
2022-10-25T17:04:13.522Z,101647.25
2022-10-25T17:06:42.186Z,101642.72
2022-10-25T17:09:10.342Z,101646.09
2022-10-25T17:11:37.659Z,101648.34
2022-10-25T17:14:05.175Z,101648.25
2022-10-25T17:16:32.517Z,101657.66
2022-10-25T17:18:59.627Z,101659.59
2022-10-25T17:21:28.525Z,101662.28
2022-10-25T17:23:56.759Z,101666.56
2022-10-25T17:26:23.857Z,101668.50
2022-10-25T17:28:51.341Z,101665.72
2022-10-25T17:31:18.418Z,101670.13
2022-10-25T17:33:46.006Z,101667.38
2022-10-25T17:36:18.434Z,101670.94
2022-10-25T17:38:46.013Z,101672.91
2022-10-25T17:41:14.134Z,101676.47
2022-10-25T17:43:41.934Z,101678.06
2022-10-25T17:46:16.573Z,101681.22
2022-10-25T17:48:43.674Z,101673.38
2022-10-25T17:51:13.031Z,101684.00
2022-10-25T17:53:40.416Z,101684.69
2022-10-25T17:56:18.752Z,101685.50
2022-10-25T17:58:47.937Z,101679.16
2022-10-25T18:01:18.844Z,101681.47
2022-10-25T18:03:46.465Z,101685.50
2022-10-25T18:06:16.417Z,101688.72
2022-10-25T18:08:43.784Z,101688.66
2022-10-25T18:11:16.094Z,101688.53
2022-10-25T18:13:43.242Z,101684.84
2022-10-25T18:16:11.510Z,101687.63
2022-10-25T18:18:39.317Z,101686.84
2022-10-25T18:21:08.381Z,101687.19
2022-10-25T18:23:36.258Z,101694.69
2022-10-25T18:26:05.297Z,101697.44
2022-10-25T18:28:33.544Z,101696.22
2022-10-25T18:31:12.797Z,101700.13
2022-10-25T18:33:42.823Z,101699.94
2022-10-25T18:36:19.570Z,101695.91
2022-10-25T18:38:47.708Z,101690.28
2022-10-25T18:41:18.007Z,101687.88
2022-10-25T18:43:46.870Z,101687.06
2022-10-25T18:46:14.469Z,101693.66
2022-10-25T18:48:42.385Z,101683.28
2022-10-25T18:51:12.613Z,101685.81
2022-10-25T18:53:40.224Z,101683.59
2022-10-25T18:56:12.352Z,101687.59
2022-10-25T18:58:40.458Z,101680.34
2022-10-25T19:01:12.924Z,101676.69
2022-10-25T19:03:41.289Z,101681.69
2022-10-25T19:06:09.669Z,101676.75
2022-10-25T19:08:37.780Z,101672.38
2022-10-25T19:11:10.471Z,101675.47
2022-10-25T19:13:38.046Z,101675.38
2022-10-25T19:16:06.552Z,101681.06
2022-10-25T19:18:35.402Z,101689.44
2022-10-25T19:21:08.029Z,101696.56
2022-10-25T19:23:36.828Z,101689.97
2022-10-25T19:26:06.612Z,101693.09
2022-10-25T19:28:34.270Z,101690.44
2022-10-25T19:31:08.742Z,101689.31
2022-10-25T19:33:36.154Z,101686.25
2022-10-25T19:36:04.942Z,101697.53
2022-10-25T19:38:32.069Z,101685.09
2022-10-25T19:41:01.465Z,101700.31
2022-10-25T19:43:28.735Z,101696.63
2022-10-25T19:46:00.123Z,101689.72
2022-10-25T19:48:28.838Z,101696.63
2022-10-25T19:50:56.059Z,101696.88
2022-10-25T19:53:23.490Z,101692.84
2022-10-25T19:56:21.174Z,101694.69
2022-10-25T19:58:49.559Z,101691.00
2022-10-25T20:01:20.649Z,101687.56
2022-10-25T20:03:50.982Z,101695.59
2022-10-25T20:06:24.316Z,101686.72
2022-10-25T20:08:53.725Z,101685.13
2022-10-25T20:11:23.818Z,101682.94
2022-10-25T20:13:56.018Z,101689.16
2022-10-25T20:16:24.327Z,101690.66
2022-10-25T20:18:51.738Z,101691.69
2022-10-25T20:21:24.849Z,101691.09
2022-10-25T20:23:56.116Z,101694.06
2022-10-25T20:26:49.897Z,101693.63
2022-10-25T20:29:21.587Z,101692.22
2022-10-25T20:31:52.658Z,101689.00
2022-10-25T20:34:20.781Z,101683.69
2022-10-25T20:36:49.229Z,101689.66
2022-10-25T20:39:16.730Z,101692.09
2022-10-25T20:41:44.121Z,101698.31
2022-10-25T20:44:12.256Z,101693.59
2022-10-25T20:46:41.557Z,101702.25
2022-10-25T20:49:08.937Z,101700.59
2022-10-25T20:51:36.574Z,101707.19
2022-10-25T20:54:09.837Z,101706.25
2022-10-25T20:56:37.522Z,101709.59
2022-10-25T20:59:05.208Z,101709.22
2022-10-25T21:01:34.197Z,101710.38
2022-10-25T21:04:01.321Z,101715.56
2022-10-25T21:06:28.374Z,101712.00
2022-10-25T21:08:55.301Z,101710.25
2022-10-25T21:11:22.348Z,101708.69
2022-10-25T21:13:49.961Z,101708.59
2022-10-25T21:18:46.000Z,101713.94
2022-10-25T21:23:46.998Z,101717.69
2022-10-25T21:26:14.455Z,101704.75
2022-10-25T21:28:41.961Z,101708.78
2022-10-25T21:31:12.138Z,101705.78
2022-10-25T21:33:40.561Z,101708.78
2022-10-25T21:36:13.515Z,101708.97
2022-10-25T21:38:41.221Z,101718.97
2022-10-25T21:41:20.872Z,101718.38
2022-10-25T21:43:49.741Z,101711.25
2022-10-25T21:46:18.510Z,101721.81
2022-10-25T21:48:52.867Z,101723.44
2022-10-25T21:51:21.606Z,101719.75
2022-10-25T21:53:48.978Z,101716.38
2022-10-25T21:56:18.258Z,101716.25
2022-10-25T21:58:47.200Z,101715.31
2022-10-25T22:01:17.134Z,101707.72
2022-10-25T22:03:44.327Z,101719.22
2022-10-25T22:06:16.799Z,101713.72
2022-10-25T22:08:44.498Z,101717.59
2022-10-25T22:11:23.220Z,101716.00
2022-10-25T22:13:58.006Z,101716.47
2022-10-25T22:16:25.861Z,101722.44
2022-10-25T22:18:57.684Z,101715.66
2022-10-25T22:21:29.138Z,101719.06
2022-10-25T22:23:56.214Z,101717.44
2022-10-25T22:26:23.275Z,101713.88
2022-10-25T22:28:58.990Z,101707.72
2022-10-25T22:31:28.855Z,101706.69
2022-10-25T22:34:01.186Z,101718.81
2022-10-25T22:36:30.658Z,101720.91
2022-10-25T22:38:58.246Z,101717.66
2022-10-25T22:41:27.494Z,101717.19
2022-10-25T22:43:54.867Z,101720.50
2022-10-25T22:46:26.294Z,101718.56
2022-10-25T22:48:55.147Z,101715.66
2022-10-25T22:51:23.555Z,101723.13
2022-10-25T22:53:50.554Z,101721.00
2022-10-25T22:56:20.318Z,101722.84
2022-10-25T22:58:49.816Z,101728.72
2022-10-25T23:01:43.280Z,101724.84
2022-10-25T23:04:10.464Z,101719.69
2022-10-25T23:06:40.911Z,101725.06
2022-10-25T23:09:10.093Z,101726.41
2022-10-25T23:11:39.657Z,101717.06
2022-10-25T23:14:13.319Z,101721.97
2022-10-25T23:16:43.672Z,101711.13
2022-10-25T23:19:10.689Z,101720.06
2022-10-25T23:21:37.726Z,101717.53
2022-10-25T23:24:05.067Z,101717.03
2022-10-25T23:26:34.360Z,101714.63
2022-10-25T23:29:01.564Z,101711.38
2022-10-25T23:31:29.671Z,101707.34
2022-10-25T23:33:58.756Z,101707.22
2022-10-25T23:36:28.731Z,101709.78
2022-10-25T23:38:56.593Z,101707.34
2022-10-25T23:41:23.992Z,101714.81
2022-10-25T23:43:51.335Z,101713.88
2022-10-25T23:46:21.025Z,101715.03
2022-10-25T23:48:48.309Z,101714.22
2022-10-25T23:51:17.933Z,101713.75
2022-10-25T23:53:45.726Z,101713.91
2022-10-25T23:56:13.783Z,101701.13
2022-10-25T23:58:41.252Z,101707.00
